sensor_id;sensor_type;location;lat;lon;timestamp;pressure;altitude;pressure_sealevel;temperature;humidity
52855;BME280;38719;51.418;7.286;2023-04-07T00:01:56;99597.88;;;9.55;76.12
52855;BME280;38719;51.418;7.286;2023-04-07T00:04:23;99596.59;;;9.45;75.99
52855;BME280;38719;51.418;7.286;2023-04-07T00:06:51;99600.16;;;9.44;76.43
52855;BME280;38719;51.418;7.286;2023-04-07T00:09:18;99592.00;;;9.29;76.57
52855;BME280;38719;51.418;7.286;2023-04-07T00:11:46;99597.88;;;9.36;76.83
52855;BME280;38719;51.418;7.286;2023-04-07T00:14:14;99590.34;;;9.46;76.25
52855;BME280;38719;51.418;7.286;2023-04-07T00:16:43;99590.19;;;9.49;76.03
52855;BME280;38719;51.418;7.286;2023-04-07T00:19:10;99588.47;;;9.48;76.38
52855;BME280;38719;51.418;7.286;2023-04-07T00:21:38;99586.38;;;9.55;76.36
52855;BME280;38719;51.418;7.286;2023-04-07T00:24:06;99593.06;;;9.63;75.44
52855;BME280;38719;51.418;7.286;2023-04-07T00:26:34;99591.63;;;9.56;75.92
52855;BME280;38719;51.418;7.286;2023-04-07T00:29:01;99583.66;;;9.56;75.42
52855;BME280;38719;51.418;7.286;2023-04-07T00:31:29;99583.66;;;9.56;75.82
52855;BME280;38719;51.418;7.286;2023-04-07T00:33:58;99581.78;;;9.58;75.92
52855;BME280;38719;51.418;7.286;2023-04-07T00:36:26;99587.84;;;9.62;75.84
52855;BME280;38719;51.418;7.286;2023-04-07T00:38:53;99586.94;;;9.61;75.78
52855;BME280;38719;51.418;7.286;2023-04-07T00:41:21;99582.94;;;9.52;76.06
52855;BME280;38719;51.418;7.286;2023-04-07T00:43:49;99581.06;;;9.74;76.12
52855;BME280;38719;51.418;7.286;2023-04-07T00:46:16;99583.06;;;9.68;76.21
52855;BME280;38719;51.418;7.286;2023-04-07T00:48:45;99579.34;;;9.73;75.47
52855;BME280;38719;51.418;7.286;2023-04-07T00:51:14;99577.75;;;9.68;75.83
52855;BME280;38719;51.418;7.286;2023-04-07T00:53:42;99579.50;;;9.70;75.84
52855;BME280;38719;51.418;7.286;2023-04-07T00:56:10;99584.59;;;9.74;76.10
52855;BME280;38719;51.418;7.286;2023-04-07T00:58:39;99575.44;;;9.80;75.34
52855;BME280;38719;51.418;7.286;2023-04-07T01:01:08;99570.59;;;9.71;75.29
52855;BME280;38719;51.418;7.286;2023-04-07T01:03:41;99578.06;;;9.81;75.54
52855;BME280;38719;51.418;7.286;2023-04-07T01:06:15;99573.03;;;9.75;75.47
52855;BME280;38719;51.418;7.286;2023-04-07T01:08:49;99569.28;;;9.79;75.12
52855;BME280;38719;51.418;7.286;2023-04-07T01:11:23;99566.84;;;9.75;75.27
52855;BME280;38719;51.418;7.286;2023-04-07T01:13:52;99570.00;;;9.83;75.18
52855;BME280;38719;51.418;7.286;2023-04-07T01:16:23;99573.75;;;9.79;75.96
52855;BME280;38719;51.418;7.286;2023-04-07T01:18:55;99564.25;;;9.73;76.22
52855;BME280;38719;51.418;7.286;2023-04-07T01:21:26;99566.53;;;9.81;76.06
52855;BME280;38719;51.418;7.286;2023-04-07T01:24:04;99568.72;;;9.73;76.72
52855;BME280;38719;51.418;7.286;2023-04-07T01:26:38;99558.66;;;9.60;75.82
52855;BME280;38719;51.418;7.286;2023-04-07T01:29:25;99572.06;;;9.76;76.36
52855;BME280;38719;51.418;7.286;2023-04-07T01:31:54;99562.94;;;9.82;76.38
52855;BME280;38719;51.418;7.286;2023-04-07T01:34:24;99563.13;;;9.79;75.74
52855;BME280;38719;51.418;7.286;2023-04-07T01:36:53;99562.75;;;9.67;75.91
52855;BME280;38719;51.418;7.286;2023-04-07T01:39:21;99558.66;;;9.60;76.58
52855;BME280;38719;51.418;7.286;2023-04-07T01:41:50;99559.78;;;9.74;75.73
52855;BME280;38719;51.418;7.286;2023-04-07T01:44:19;99569.34;;;9.59;75.71
52855;BME280;38719;51.418;7.286;2023-04-07T01:46:48;99565.34;;;9.69;76.41
52855;BME280;38719;51.418;7.286;2023-04-07T01:49:17;99557.91;;;9.76;76.02
52855;BME280;38719;51.418;7.286;2023-04-07T01:51:45;99558.78;;;9.76;76.27
52855;BME280;38719;51.418;7.286;2023-04-07T01:54:15;99564.81;;;9.80;76.28
52855;BME280;38719;51.418;7.286;2023-04-07T01:56:43;99567.03;;;9.89;75.95
52855;BME280;38719;51.418;7.286;2023-04-07T01:59:11;99553.06;;;9.66;77.05
52855;BME280;38719;51.418;7.286;2023-04-07T02:01:40;99558.94;;;9.73;76.86
52855;BME280;38719;51.418;7.286;2023-04-07T02:04:11;99555.59;;;9.87;76.46
52855;BME280;38719;51.418;7.286;2023-04-07T02:06:44;99551.63;;;9.96;75.25
52855;BME280;38719;51.418;7.286;2023-04-07T02:09:15;99554.25;;;9.97;75.67
52855;BME280;38719;51.418;7.286;2023-04-07T02:11:44;99562.00;;;9.83;75.80
52855;BME280;38719;51.418;7.286;2023-04-07T02:14:12;99557.53;;;10.03;75.78
52855;BME280;38719;51.418;7.286;2023-04-07T02:16:42;99553.09;;;9.84;76.00
52855;BME280;38719;51.418;7.286;2023-04-07T02:19:12;99556.19;;;9.75;76.15
52855;BME280;38719;51.418;7.286;2023-04-07T02:21:41;99558.63;;;9.79;76.00
52855;BME280;38719;51.418;7.286;2023-04-07T02:24:10;99556.13;;;9.76;76.26
52855;BME280;38719;51.418;7.286;2023-04-07T02:26:38;99553.56;;;9.92;76.13
52855;BME280;38719;51.418;7.286;2023-04-07T02:29:06;99548.44;;;9.70;76.63
52855;BME280;38719;51.418;7.286;2023-04-07T02:31:33;99558.59;;;9.62;76.67
52855;BME280;38719;51.418;7.286;2023-04-07T02:34:02;99555.63;;;9.68;76.64
52855;BME280;38719;51.418;7.286;2023-04-07T02:36:30;99554.91;;;9.64;77.52
52855;BME280;38719;51.418;7.286;2023-04-07T02:38:57;99552.91;;;9.70;77.41
52855;BME280;38719;51.418;7.286;2023-04-07T02:41:25;99550.53;;;9.63;77.17
52855;BME280;38719;51.418;7.286;2023-04-07T02:43:52;99559.59;;;9.59;77.44
52855;BME280;38719;51.418;7.286;2023-04-07T02:46:20;99556.06;;;9.78;76.91
52855;BME280;38719;51.418;7.286;2023-04-07T02:48:48;99554.88;;;9.83;76.59
52855;BME280;38719;51.418;7.286;2023-04-07T02:51:17;99558.22;;;9.70;77.11
52855;BME280;38719;51.418;7.286;2023-04-07T02:53:44;99554.88;;;9.83;77.21
52855;BME280;38719;51.418;7.286;2023-04-07T02:56:12;99553.34;;;9.97;76.14
52855;BME280;38719;51.418;7.286;2023-04-07T02:58:39;99559.91;;;9.90;76.52
52855;BME280;38719;51.418;7.286;2023-04-07T03:01:07;99552.03;;;10.06;75.79
52855;BME280;38719;51.418;7.286;2023-04-07T03:03:34;99551.81;;;10.10;75.70
52855;BME280;38719;51.418;7.286;2023-04-07T03:06:02;99551.09;;;10.07;76.04
52855;BME280;38719;51.418;7.286;2023-04-07T03:08:32;99555.28;;;10.12;76.26
52855;BME280;38719;51.418;7.286;2023-04-07T03:10:59;99552.03;;;10.06;75.99
52855;BME280;38719;51.418;7.286;2023-04-07T03:13:27;99555.09;;;9.98;76.59
52855;BME280;38719;51.418;7.286;2023-04-07T03:15:56;99555.63;;;10.05;76.49
52855;BME280;38719;51.418;7.286;2023-04-07T03:18:23;99552.47;;;9.79;77.70
52855;BME280;38719;51.418;7.286;2023-04-07T03:20:51;99553.28;;;9.98;77.26
52855;BME280;38719;51.418;7.286;2023-04-07T03:23:20;99556.53;;;9.86;77.67
52855;BME280;38719;51.418;7.286;2023-04-07T03:25:50;99558.75;;;9.95;77.66
52855;BME280;38719;51.418;7.286;2023-04-07T03:28:17;99553.31;;;9.79;78.10
52855;BME280;38719;51.418;7.286;2023-04-07T03:30:45;99552.09;;;9.87;77.80
52855;BME280;38719;51.418;7.286;2023-04-07T03:33:13;99550.66;;;10.16;77.41
52855;BME280;38719;51.418;7.286;2023-04-07T03:35:41;99558.47;;;10.02;77.13
52855;BME280;38719;51.418;7.286;2023-04-07T03:38:08;99558.88;;;10.11;76.92
52855;BME280;38719;51.418;7.286;2023-04-07T03:40:36;99550.31;;;10.05;77.64
52855;BME280;38719;51.418;7.286;2023-04-07T03:43:05;99555.13;;;10.15;77.59
52855;BME280;38719;51.418;7.286;2023-04-07T03:45:37;99547.84;;;10.19;76.66
52855;BME280;38719;51.418;7.286;2023-04-07T03:48:05;99554.56;;;10.09;76.59
52855;BME280;38719;51.418;7.286;2023-04-07T03:50:35;99558.97;;;10.10;76.78
52855;BME280;38719;51.418;7.286;2023-04-07T03:53:03;99561.38;;;10.14;77.34
52855;BME280;38719;51.418;7.286;2023-04-07T03:55:33;99567.31;;;10.20;76.57
52855;BME280;38719;51.418;7.286;2023-04-07T03:58:01;99558.19;;;10.25;76.75
52855;BME280;38719;51.418;7.286;2023-04-07T04:00:30;99563.66;;;10.22;76.63
52855;BME280;38719;51.418;7.286;2023-04-07T04:02:59;99559.72;;;10.12;77.45
52855;BME280;38719;51.418;7.286;2023-04-07T04:05:26;99559.59;;;10.15;77.81
52855;BME280;38719;51.418;7.286;2023-04-07T04:07:54;99562.69;;;10.23;76.60
52855;BME280;38719;51.418;7.286;2023-04-07T04:10:21;99556.13;;;10.13;77.05
52855;BME280;38719;51.418;7.286;2023-04-07T04:12:49;99566.06;;;10.09;77.30
52855;BME280;38719;51.418;7.286;2023-04-07T04:15:16;99563.59;;;10.24;77.70
52855;BME280;38719;51.418;7.286;2023-04-07T04:17:45;99564.59;;;10.21;76.71
52855;BME280;38719;51.418;7.286;2023-04-07T04:20:13;99562.25;;;10.15;77.81
52855;BME280;38719;51.418;7.286;2023-04-07T04:22:40;99568.41;;;10.15;77.20
52855;BME280;38719;51.418;7.286;2023-04-07T04:25:08;99570.06;;;10.18;76.96
52855;BME280;38719;51.418;7.286;2023-04-07T04:27:35;99566.63;;;10.16;77.55
52855;BME280;38719;51.418;7.286;2023-04-07T04:30:04;99571.47;;;10.25;77.68
52855;BME280;38719;51.418;7.286;2023-04-07T04:32:32;99573.59;;;9.82;78.91
52855;BME280;38719;51.418;7.286;2023-04-07T04:35:01;99581.22;;;10.07;79.21
52855;BME280;38719;51.418;7.286;2023-04-07T04:37:28;99567.00;;;10.08;77.79
52855;BME280;38719;51.418;7.286;2023-04-07T04:39:56;99586.63;;;10.06;79.03
52855;BME280;38719;51.418;7.286;2023-04-07T04:42:23;99582.25;;;10.05;78.39
52855;BME280;38719;51.418;7.286;2023-04-07T04:44:52;99588.25;;;10.27;78.39
52855;BME280;38719;51.418;7.286;2023-04-07T04:47:19;99585.28;;;10.33;77.13
52855;BME280;38719;51.418;7.286;2023-04-07T04:49:47;99587.22;;;10.30;77.40
52855;BME280;38719;51.418;7.286;2023-04-07T04:52:16;99596.75;;;10.16;77.77
52855;BME280;38719;51.418;7.286;2023-04-07T04:54:43;99596.94;;;9.94;78.64
52855;BME280;38719;51.418;7.286;2023-04-07T04:57:11;99586.81;;;9.83;79.43
52855;BME280;38719;51.418;7.286;2023-04-07T04:59:38;99591.56;;;9.77;79.39
52855;BME280;38719;51.418;7.286;2023-04-07T05:02:07;99597.28;;;10.06;78.64
52855;BME280;38719;51.418;7.286;2023-04-07T05:04:35;99598.38;;;10.02;78.05
52855;BME280;38719;51.418;7.286;2023-04-07T05:07:03;99599.59;;;9.94;78.61
52855;BME280;38719;51.418;7.286;2023-04-07T05:09:32;99602.75;;;10.03;78.80
52855;BME280;38719;51.418;7.286;2023-04-07T05:11:59;99603.53;;;10.05;79.25
52855;BME280;38719;51.418;7.286;2023-04-07T05:14:27;99609.63;;;10.07;77.98
52855;BME280;38719;51.418;7.286;2023-04-07T05:16:55;99615.38;;;10.16;79.16
52855;BME280;38719;51.418;7.286;2023-04-07T05:19:22;99606.22;;;9.86;79.24
52855;BME280;38719;51.418;7.286;2023-04-07T05:21:50;99612.19;;;9.72;79.78
52855;BME280;38719;51.418;7.286;2023-04-07T05:24:18;99613.47;;;9.82;79.56
52855;BME280;38719;51.418;7.286;2023-04-07T05:26:47;99616.72;;;9.70;79.77
52855;BME280;38719;51.418;7.286;2023-04-07T05:29:14;99625.25;;;9.95;80.67
52855;BME280;38719;51.418;7.286;2023-04-07T05:31:42;99622.59;;;9.95;79.04
52855;BME280;38719;51.418;7.286;2023-04-07T05:34:09;99615.50;;;10.13;79.42
52855;BME280;38719;51.418;7.286;2023-04-07T05:36:37;99625.56;;;9.89;78.67
52855;BME280;38719;51.418;7.286;2023-04-07T05:39:04;99622.91;;;9.89;79.38
52855;BME280;38719;51.418;7.286;2023-04-07T05:41:32;99620.81;;;9.77;79.55
52855;BME280;38719;51.418;7.286;2023-04-07T05:44:01;99629.94;;;9.71;79.22
52855;BME280;38719;51.418;7.286;2023-04-07T05:46:28;99629.22;;;9.87;79.85
52855;BME280;38719;51.418;7.286;2023-04-07T05:48:56;99626.94;;;9.79;79.73
52855;BME280;38719;51.418;7.286;2023-04-07T05:51:30;99631.22;;;9.62;80.48
52855;BME280;38719;51.418;7.286;2023-04-07T05:54:01;99635.25;;;9.71;80.17
52855;BME280;38719;51.418;7.286;2023-04-07T05:56:29;99637.19;;;9.67;80.65
52855;BME280;38719;51.418;7.286;2023-04-07T05:58:56;99643.22;;;9.71;80.08
52855;BME280;38719;51.418;7.286;2023-04-07T06:01:25;99638.63;;;9.75;79.76
52855;BME280;38719;51.418;7.286;2023-04-07T06:03:53;99642.28;;;9.72;79.64
52855;BME280;38719;51.418;7.286;2023-04-07T06:06:20;99640.16;;;9.80;79.22
52855;BME280;38719;51.418;7.286;2023-04-07T06:08:48;99640.88;;;9.84;79.75
52855;BME280;38719;51.418;7.286;2023-04-07T06:11:16;99654.81;;;9.89;78.74
52855;BME280;38719;51.418;7.286;2023-04-07T06:13:43;99654.94;;;9.86;79.02
52855;BME280;38719;51.418;7.286;2023-04-07T06:16:11;99654.44;;;9.97;79.09
52855;BME280;38719;51.418;7.286;2023-04-07T06:18:39;99652.06;;;9.91;79.08
52855;BME280;38719;51.418;7.286;2023-04-07T06:21:07;99661.41;;;9.99;79.12
52855;BME280;38719;51.418;7.286;2023-04-07T06:23:34;99663.84;;;10.04;79.28
52855;BME280;38719;51.418;7.286;2023-04-07T06:26:02;99663.00;;;9.84;80.08
52855;BME280;38719;51.418;7.286;2023-04-07T06:28:30;99670.09;;;10.03;79.39
52855;BME280;38719;51.418;7.286;2023-04-07T06:30:57;99670.84;;;10.07;78.78
52855;BME280;38719;51.418;7.286;2023-04-07T06:33:25;99666.53;;;10.04;78.61
52855;BME280;38719;51.418;7.286;2023-04-07T06:35:55;99669.81;;;10.09;79.55
52855;BME280;38719;51.418;7.286;2023-04-07T06:38:22;99666.19;;;10.29;78.72
52855;BME280;38719;51.418;7.286;2023-04-07T06:40:50;99667.59;;;10.19;78.11
52855;BME280;38719;51.418;7.286;2023-04-07T06:43:18;99679.25;;;10.16;78.01
52855;BME280;38719;51.418;7.286;2023-04-07T06:45:45;99677.09;;;10.06;78.27
52855;BME280;38719;51.418;7.286;2023-04-07T06:48:13;99678.81;;;10.07;79.08
52855;BME280;38719;51.418;7.286;2023-04-07T06:50:40;99679.44;;;10.12;77.93
52855;BME280;38719;51.418;7.286;2023-04-07T06:53:09;99684.00;;;10.10;78.61
52855;BME280;38719;51.418;7.286;2023-04-07T06:55:37;99678.00;;;10.05;78.44
52855;BME280;38719;51.418;7.286;2023-04-07T06:58:04;99685.69;;;10.11;78.47
52855;BME280;38719;51.418;7.286;2023-04-07T07:00:32;99682.59;;;10.01;79.13
52855;BME280;38719;51.418;7.286;2023-04-07T07:02:59;99686.38;;;10.16;78.56
52855;BME280;38719;51.418;7.286;2023-04-07T07:05:27;99689.03;;;10.16;78.07
52855;BME280;38719;51.418;7.286;2023-04-07T07:07:55;99690.97;;;10.12;78.53
52855;BME280;38719;51.418;7.286;2023-04-07T07:10:23;99695.63;;;10.07;78.60
52855;BME280;38719;51.418;7.286;2023-04-07T07:12:51;99694.94;;;10.04;78.45
52855;BME280;38719;51.418;7.286;2023-04-07T07:15:18;99694.66;;;10.10;78.74
52855;BME280;38719;51.418;7.286;2023-04-07T07:17:46;99707.06;;;10.28;78.58
52855;BME280;38719;51.418;7.286;2023-04-07T07:20:14;99701.25;;;10.20;78.00
52855;BME280;38719;51.418;7.286;2023-04-07T07:22:41;99702.84;;;10.05;79.02
52855;BME280;38719;51.418;7.286;2023-04-07T07:25:09;99702.91;;;10.04;79.69
52855;BME280;38719;51.418;7.286;2023-04-07T07:27:38;99706.84;;;10.14;78.63
52855;BME280;38719;51.418;7.286;2023-04-07T07:30:06;99712.31;;;10.30;78.65
52855;BME280;38719;51.418;7.286;2023-04-07T07:32:34;99713.72;;;10.39;78.50
52855;BME280;38719;51.418;7.286;2023-04-07T07:35:01;99716.44;;;10.37;78.38
52855;BME280;38719;51.418;7.286;2023-04-07T07:37:29;99721.53;;;10.42;77.00
52855;BME280;38719;51.418;7.286;2023-04-07T07:39:56;99711.59;;;10.26;78.24
52855;BME280;38719;51.418;7.286;2023-04-07T07:42:24;99730.06;;;10.29;79.15
52855;BME280;38719;51.418;7.286;2023-04-07T07:44:53;99730.47;;;10.41;78.45
52855;BME280;38719;51.418;7.286;2023-04-07T07:47:21;99732.44;;;10.36;78.26
52855;BME280;38719;51.418;7.286;2023-04-07T07:49:48;99738.22;;;10.26;78.54
52855;BME280;38719;51.418;7.286;2023-04-07T07:52:16;99732.16;;;10.23;78.11
52855;BME280;38719;51.418;7.286;2023-04-07T07:54:46;99741.50;;;10.31;78.80
52855;BME280;38719;51.418;7.286;2023-04-07T07:57:14;99738.94;;;10.49;78.42
52855;BME280;38719;51.418;7.286;2023-04-07T07:59:42;99748.44;;;10.55;78.00
52855;BME280;38719;51.418;7.286;2023-04-07T08:02:10;99743.34;;;10.50;77.63
52855;BME280;38719;51.418;7.286;2023-04-07T08:04:39;99754.97;;;10.67;77.92
52855;BME280;38719;51.418;7.286;2023-04-07T08:07:06;99748.94;;;10.44;77.59
52855;BME280;38719;51.418;7.286;2023-04-07T08:09:34;99759.06;;;10.36;78.87
52855;BME280;38719;51.418;7.286;2023-04-07T08:12:01;99755.28;;;10.41;78.60
52855;BME280;38719;51.418;7.286;2023-04-07T08:14:29;99763.09;;;10.44;77.96
52855;BME280;38719;51.418;7.286;2023-04-07T08:16:56;99760.66;;;10.59;77.59
52855;BME280;38719;51.418;7.286;2023-04-07T08:19:25;99763.16;;;10.81;77.71
52855;BME280;38719;51.418;7.286;2023-04-07T08:21:53;99767.34;;;10.68;77.45
52855;BME280;38719;51.418;7.286;2023-04-07T08:24:20;99766.91;;;10.77;77.19
52855;BME280;38719;51.418;7.286;2023-04-07T08:26:48;99761.97;;;10.69;77.43
52855;BME280;38719;51.418;7.286;2023-04-07T08:29:15;99761.75;;;10.91;77.75
52855;BME280;38719;51.418;7.286;2023-04-07T08:31:43;99773.00;;;10.79;76.99
52855;BME280;38719;51.418;7.286;2023-04-07T08:34:10;99776.53;;;10.79;77.28
52855;BME280;38719;51.418;7.286;2023-04-07T08:36:40;99770.59;;;10.74;78.27
52855;BME280;38719;51.418;7.286;2023-04-07T08:39:09;99771.09;;;10.63;77.62
52855;BME280;38719;51.418;7.286;2023-04-07T08:41:38;99770.59;;;10.74;78.25
52855;BME280;38719;51.418;7.286;2023-04-07T08:44:06;99774.72;;;10.99;77.59
52855;BME280;38719;51.418;7.286;2023-04-07T08:46:35;99773.69;;;11.02;77.37
52855;BME280;38719;51.418;7.286;2023-04-07T08:49:07;99781.84;;;11.16;76.97
52855;BME280;38719;51.418;7.286;2023-04-07T08:51:37;99777.47;;;11.15;77.29
52855;BME280;38719;51.418;7.286;2023-04-07T08:54:10;99786.63;;;11.09;76.74
52855;BME280;38719;51.418;7.286;2023-04-07T08:56:39;99784.34;;;11.02;77.27
52855;BME280;38719;51.418;7.286;2023-04-07T08:59:09;99789.06;;;11.14;76.86
52855;BME280;38719;51.418;7.286;2023-04-07T09:01:37;99786.19;;;11.19;76.58
52855;BME280;38719;51.418;7.286;2023-04-07T09:04:07;99790.50;;;11.21;77.62
52855;BME280;38719;51.418;7.286;2023-04-07T09:06:36;99797.69;;;11.19;77.10
52855;BME280;38719;51.418;7.286;2023-04-07T09:09:05;99793.47;;;11.33;76.96
52855;BME280;38719;51.418;7.286;2023-04-07T09:11:35;99795.50;;;11.27;76.99
52855;BME280;38719;51.418;7.286;2023-04-07T09:14:03;99798.63;;;11.36;76.34
52855;BME280;38719;51.418;7.286;2023-04-07T09:16:31;99803.50;;;11.27;76.21
52855;BME280;38719;51.418;7.286;2023-04-07T09:18:58;99801.28;;;11.18;76.51
52855;BME280;38719;51.418;7.286;2023-04-07T09:21:26;99801.06;;;11.23;76.99
52855;BME280;38719;51.418;7.286;2023-04-07T09:24:21;99803.31;;;11.13;76.37
52855;BME280;38719;51.418;7.286;2023-04-07T09:26:49;99803.13;;;10.99;76.90
52855;BME280;38719;51.418;7.286;2023-04-07T09:29:20;99801.28;;;11.01;77.67
52855;BME280;38719;51.418;7.286;2023-04-07T09:31:49;99802.94;;;11.21;76.96
52855;BME280;38719;51.418;7.286;2023-04-07T09:34:23;99804.59;;;11.23;76.64
52855;BME280;38719;51.418;7.286;2023-04-07T09:36:51;99800.56;;;11.15;77.54
52855;BME280;38719;51.418;7.286;2023-04-07T09:39:20;99800.16;;;11.05;77.18
52855;BME280;38719;51.418;7.286;2023-04-07T09:41:47;99805.88;;;11.34;75.67
52855;BME280;38719;51.418;7.286;2023-04-07T09:44:15;99807.50;;;11.19;76.07
52855;BME280;38719;51.418;7.286;2023-04-07T09:46:50;99804.38;;;10.91;76.64
52855;BME280;38719;51.418;7.286;2023-04-07T09:49:18;99806.94;;;11.12;77.14
52855;BME280;38719;51.418;7.286;2023-04-07T09:51:53;99809.91;;;11.23;75.77
52855;BME280;38719;51.418;7.286;2023-04-07T09:54:41;99811.47;;;11.10;76.08
52855;BME280;38719;51.418;7.286;2023-04-07T09:57:10;99819.00;;;11.19;76.31
52855;BME280;38719;51.418;7.286;2023-04-07T09:59:40;99816.88;;;11.08;76.83
52855;BME280;38719;51.418;7.286;2023-04-07T10:02:10;99825.91;;;11.23;77.43
52855;BME280;38719;51.418;7.286;2023-04-07T10:04:38;99819.72;;;11.23;76.82
52855;BME280;38719;51.418;7.286;2023-04-07T10:07:06;99820.56;;;11.23;76.47
52855;BME280;38719;51.418;7.286;2023-04-07T10:09:34;99824.03;;;11.25;75.72
52855;BME280;38719;51.418;7.286;2023-04-07T10:12:03;99827.28;;;10.95;76.88
52855;BME280;38719;51.418;7.286;2023-04-07T10:14:34;99821.94;;;10.95;77.15
52855;BME280;38719;51.418;7.286;2023-04-07T10:17:05;99825.03;;;11.05;77.50
52855;BME280;38719;51.418;7.286;2023-04-07T10:19:33;99825.09;;;11.04;77.44
52855;BME280;38719;51.418;7.286;2023-04-07T10:22:02;99833.88;;;11.06;77.58
52855;BME280;38719;51.418;7.286;2023-04-07T10:24:43;99831.44;;;11.01;78.04
52855;BME280;38719;51.418;7.286;2023-04-07T10:27:17;99842.34;;;10.96;78.15
52855;BME280;38719;51.418;7.286;2023-04-07T10:29:49;99842.16;;;11.00;77.48
52855;BME280;38719;51.418;7.286;2023-04-07T10:32:17;99842.84;;;10.86;78.21
52855;BME280;38719;51.418;7.286;2023-04-07T10:34:55;99835.28;;;10.95;78.20
52855;BME280;38719;51.418;7.286;2023-04-07T10:37:24;99842.25;;;10.98;77.29
52855;BME280;38719;51.418;7.286;2023-04-07T10:40:27;99845.28;;;10.90;77.53
52855;BME280;38719;51.418;7.286;2023-04-07T10:42:56;99837.34;;;10.89;78.36
52855;BME280;38719;51.418;7.286;2023-04-07T10:45:55;99843.47;;;10.91;78.45
52855;BME280;38719;51.418;7.286;2023-04-07T10:48:25;99844.56;;;10.87;77.68
52855;BME280;38719;51.418;7.286;2023-04-07T10:51:12;99845.59;;;10.84;77.69
52855;BME280;38719;51.418;7.286;2023-04-07T10:54:14;99845.44;;;10.87;76.76
52855;BME280;38719;51.418;7.286;2023-04-07T10:57:08;99853.91;;;10.76;77.97
52855;BME280;38719;51.418;7.286;2023-04-07T10:59:40;99857.91;;;10.87;78.26
52855;BME280;38719;51.418;7.286;2023-04-07T11:02:33;99857.81;;;10.88;78.26
52855;BME280;38719;51.418;7.286;2023-04-07T11:05:02;99864.00;;;11.08;78.37
52855;BME280;38719;51.418;7.286;2023-04-07T11:07:47;99861.63;;;10.63;78.48
52855;BME280;38719;51.418;7.286;2023-04-07T11:10:16;99864.53;;;10.78;78.88
52855;BME280;38719;51.418;7.286;2023-04-07T11:12:58;99854.91;;;11.12;77.96
52855;BME280;38719;51.418;7.286;2023-04-07T11:15:27;99863.16;;;11.25;77.91
52855;BME280;38719;51.418;7.286;2023-04-07T11:18:17;99865.47;;;11.50;78.18
52855;BME280;38719;51.418;7.286;2023-04-07T11:20:47;99859.75;;;11.58;77.13
52855;BME280;38719;51.418;7.286;2023-04-07T11:23:16;99869.53;;;11.40;77.35
52855;BME280;38719;51.418;7.286;2023-04-07T11:25:46;99864.66;;;11.48;77.23
52855;BME280;38719;51.418;7.286;2023-04-07T11:28:14;99871.91;;;11.46;76.70
52855;BME280;38719;51.418;7.286;2023-04-07T11:30:48;99870.69;;;11.34;77.35
52855;BME280;38719;51.418;7.286;2023-04-07T11:33:18;99876.50;;;11.25;76.77
52855;BME280;38719;51.418;7.286;2023-04-07T11:35:50;99872.75;;;11.10;77.84
52855;BME280;38719;51.418;7.286;2023-04-07T11:38:18;99881.88;;;11.23;76.69
52855;BME280;38719;51.418;7.286;2023-04-07T11:40:46;99879.69;;;10.95;77.42
52855;BME280;38719;51.418;7.286;2023-04-07T11:43:15;99883.72;;;11.04;78.31
52855;BME280;38719;51.418;7.286;2023-04-07T11:45:43;99883.88;;;11.01;77.44
52855;BME280;38719;51.418;7.286;2023-04-07T11:48:29;99877.78;;;11.16;77.15
52855;BME280;38719;51.418;7.286;2023-04-07T11:50:57;99883.03;;;11.00;78.36
52855;BME280;38719;51.418;7.286;2023-04-07T11:53:26;99887.75;;;10.93;78.13
52855;BME280;38719;51.418;7.286;2023-04-07T11:56:01;99887.75;;;11.12;77.35
52855;BME280;38719;51.418;7.286;2023-04-07T11:58:29;99890.59;;;11.27;77.24
52855;BME280;38719;51.418;7.286;2023-04-07T12:00:58;99895.66;;;11.14;76.79
52855;BME280;38719;51.418;7.286;2023-04-07T12:03:31;99891.19;;;11.15;77.50
52855;BME280;38719;51.418;7.286;2023-04-07T12:06:00;99894.19;;;11.26;76.61
52855;BME280;38719;51.418;7.286;2023-04-07T12:08:40;99901.25;;;11.27;76.59
52855;BME280;38719;51.418;7.286;2023-04-07T12:11:08;99896.94;;;11.24;77.63
52855;BME280;38719;51.418;7.286;2023-04-07T12:13:36;99909.34;;;11.25;77.10
52855;BME280;38719;51.418;7.286;2023-04-07T12:16:04;99911.16;;;11.25;75.75
52855;BME280;38719;51.418;7.286;2023-04-07T12:18:33;99914.28;;;11.33;75.94
52855;BME280;38719;51.418;7.286;2023-04-07T12:21:02;99912.13;;;11.22;76.10
52855;BME280;38719;51.418;7.286;2023-04-07T12:23:29;99913.88;;;11.23;77.03
52855;BME280;38719;51.418;7.286;2023-04-07T12:25:57;99921.31;;;11.17;75.95
52855;BME280;38719;51.418;7.286;2023-04-07T12:28:24;99914.81;;;11.22;75.96
52855;BME280;38719;51.418;7.286;2023-04-07T12:30:53;99920.63;;;11.31;76.94
52855;BME280;38719;51.418;7.286;2023-04-07T12:33:20;99923.47;;;11.27;76.76
52855;BME280;38719;51.418;7.286;2023-04-07T12:35:49;99918.44;;;11.21;76.58
52855;BME280;38719;51.418;7.286;2023-04-07T12:38:17;99922.28;;;11.33;76.55
52855;BME280;38719;51.418;7.286;2023-04-07T12:40:44;99925.16;;;11.28;77.28
52855;BME280;38719;51.418;7.286;2023-04-07T12:43:12;99929.13;;;11.39;77.46
52855;BME280;38719;51.418;7.286;2023-04-07T12:45:39;99932.41;;;11.26;76.41
52855;BME280;38719;51.418;7.286;2023-04-07T12:48:07;99933.47;;;11.22;77.22
52855;BME280;38719;51.418;7.286;2023-04-07T12:50:35;99942.03;;;11.29;77.48
52855;BME280;38719;51.418;7.286;2023-04-07T12:53:04;99941.75;;;11.35;76.71
52855;BME280;38719;51.418;7.286;2023-04-07T12:55:31;99946.88;;;11.40;76.76
52855;BME280;38719;51.418;7.286;2023-04-07T12:58:01;99939.94;;;10.97;77.38
52855;BME280;38719;51.418;7.286;2023-04-07T13:00:28;99947.09;;;11.16;77.17
52855;BME280;38719;51.418;7.286;2023-04-07T13:02:56;99942.13;;;11.27;77.36
52855;BME280;38719;51.418;7.286;2023-04-07T13:05:24;99940.41;;;11.26;76.83
52855;BME280;38719;51.418;7.286;2023-04-07T13:07:52;99941.66;;;11.37;76.64
52855;BME280;38719;51.418;7.286;2023-04-07T13:10:21;99946.56;;;11.27;76.56
52855;BME280;38719;51.418;7.286;2023-04-07T13:12:48;99951.00;;;11.09;76.73
52855;BME280;38719;51.418;7.286;2023-04-07T13:15:16;99949.03;;;11.32;76.16
52855;BME280;38719;51.418;7.286;2023-04-07T13:17:45;99940.22;;;11.29;76.89